createdAt,value
2023-03-02T00:00:02.122Z,56.99
2023-03-02T00:15:01.381Z,56.99
2023-03-02T00:30:01.780Z,56.99
2023-03-02T00:45:02.081Z,56.99
2023-03-02T01:00:02.377Z,56.99
2023-03-02T01:15:01.716Z,56.99
2023-03-02T01:30:03.145Z,0.97
2023-03-02T01:45:01.496Z,0.97
2023-03-02T02:00:02.035Z,0.97
2023-03-02T02:15:02.462Z,0.97
2023-03-02T02:30:01.724Z,1.13
2023-03-02T02:45:02.206Z,1.13
2023-03-02T03:00:03.005Z,0.86
2023-03-02T03:15:02.010Z,0.86
2023-03-02T03:30:02.331Z,0.86
2023-03-02T03:45:02.455Z,0.86
2023-03-02T04:00:03.027Z,0.86
2023-03-02T04:15:02.287Z,0.86
2023-03-02T04:30:01.887Z,0.86
2023-03-02T04:45:02.376Z,0.86
2023-03-02T05:00:02.281Z,-1.1
2023-03-02T05:15:02.405Z,0.84
2023-03-02T05:30:02.078Z,0.78
2023-03-02T05:45:02.368Z,-1.1
2023-03-02T06:00:01.734Z,-1.29
2023-03-02T06:15:02.309Z,0.82
2023-03-02T06:30:01.512Z,0.5
2023-03-02T06:45:02.311Z,0.36
2023-03-02T07:00:02.234Z,0.3
2023-03-02T07:15:02.322Z,1.58
2023-03-02T07:30:02.875Z,1.58
2023-03-02T07:45:03.406Z,1.58
2023-03-02T08:00:01.776Z,1.58
2023-03-02T08:15:04.485Z,1.58
2023-03-02T08:30:02.948Z,1.58
2023-03-02T08:45:02.190Z,1.58
2023-03-02T09:00:01.810Z,1.58
2023-03-02T09:15:02.275Z,1.58
2023-03-02T09:30:02.797Z,1.58
2023-03-02T09:45:01.559Z,1.58
2023-03-02T10:00:12.866Z,14.52
2023-03-02T10:15:01.741Z,15.23
2023-03-02T10:30:02.895Z,15.23
2023-03-02T10:45:01.733Z,15.23
2023-03-02T11:00:02.415Z,15.23
2023-03-02T11:15:02.706Z,15.23
2023-03-02T11:30:01.397Z,15.23
2023-03-02T11:45:01.710Z,15.23
2023-03-02T12:00:02.699Z,21.29
2023-03-02T12:15:02.680Z,21.29
2023-03-02T12:30:02.551Z,21.29
2023-03-02T12:45:02.475Z,21.29
2023-03-02T13:00:02.828Z,21.29
2023-03-02T13:15:01.375Z,14.3
2023-03-02T13:30:01.742Z,14.6
2023-03-02T13:45:02.879Z,15.3
2023-03-02T14:00:01.431Z,12.56
2023-03-02T14:15:02.252Z,13.23
2023-03-02T14:30:01.590Z,62.2
2023-03-02T14:45:01.874Z,62.2
2023-03-02T15:00:02.300Z,62.2
2023-03-02T15:15:02.576Z,62.2
2023-03-02T15:30:03.127Z,62.2
2023-03-02T15:45:01.565Z,62.2
2023-03-02T16:00:03.784Z,62.2
2023-03-02T16:15:02.357Z,62.2
2023-03-02T16:30:02.598Z,62.2
2023-03-02T16:45:01.808Z,62.2
2023-03-02T17:00:02.178Z,62.2
2023-03-02T17:15:02.257Z,62.2
2023-03-02T17:30:01.515Z,62.2
2023-03-02T17:45:01.848Z,62.2
2023-03-02T18:00:02.236Z,62.2
2023-03-02T18:15:02.405Z,62.2
2023-03-02T18:30:01.692Z,62.2
2023-03-02T18:45:01.964Z,62.2
2023-03-02T19:00:01.969Z,62.2
2023-03-02T19:15:02.541Z,62.2
2023-03-02T19:30:03.194Z,62.2
2023-03-02T19:45:01.636Z,62.2
2023-03-02T20:00:02.341Z,62.2
2023-03-02T20:15:02.129Z,62.2
2023-03-02T20:30:01.804Z,62.2
2023-03-02T20:45:02.268Z,62.2
2023-03-02T21:00:02.438Z,62.2
2023-03-02T21:15:01.556Z,62.2
2023-03-02T21:30:01.871Z,62.2
2023-03-02T21:45:02.242Z,62.2
2023-03-02T22:00:02.656Z,62.2
2023-03-02T22:15:01.721Z,62.2
2023-03-02T22:30:02.121Z,62.2
2023-03-02T22:45:02.278Z,62.2
2023-03-02T23:00:02.876Z,62.2
2023-03-02T23:15:01.750Z,62.2
2023-03-02T23:30:02.153Z,62.2
2023-03-02T23:45:02.560Z,62.2
